sensor_id;sensor_type;location;lat;lon;timestamp;pressure;altitude;pressure_sealevel;temperature;humidity
16777;BME280;8505;49.456;8.164;2023-04-26T00:02:05;99916.06;;;3.98;81.45
16777;BME280;8505;49.456;8.164;2023-04-26T00:04:34;99918.09;;;3.94;81.55
16777;BME280;8505;49.456;8.164;2023-04-26T00:07:02;99921.72;;;3.82;82.02
16777;BME280;8505;49.456;8.164;2023-04-26T00:09:30;99922.19;;;3.87;81.84
16777;BME280;8505;49.456;8.164;2023-04-26T00:11:58;99924.47;;;3.81;81.92
16777;BME280;8505;49.456;8.164;2023-04-26T00:14:26;99922.00;;;3.68;82.57
16777;BME280;8505;49.456;8.164;2023-04-26T00:16:54;99924.16;;;3.63;82.38
16777;BME280;8505;49.456;8.164;2023-04-26T00:19:22;99915.50;;;3.51;83.29
16777;BME280;8505;49.456;8.164;2023-04-26T00:21:51;99924.19;;;3.41;83.83
16777;BME280;8505;49.456;8.164;2023-04-26T00:24:19;99932.88;;;3.30;84.53
16777;BME280;8505;49.456;8.164;2023-04-26T00:26:47;99919.34;;;3.25;84.72
16777;BME280;8505;49.456;8.164;2023-04-26T00:29:15;99924.94;;;3.20;84.61
16777;BME280;8505;49.456;8.164;2023-04-26T00:31:42;99927.78;;;3.17;84.69
16777;BME280;8505;49.456;8.164;2023-04-26T00:34:10;99922.78;;;3.14;84.99
16777;BME280;8505;49.456;8.164;2023-04-26T00:36:38;99916.94;;;3.11;84.65
16777;BME280;8505;49.456;8.164;2023-04-26T00:39:07;99923.03;;;3.11;84.80
16777;BME280;8505;49.456;8.164;2023-04-26T00:41:36;99917.66;;;3.24;84.94
16777;BME280;8505;49.456;8.164;2023-04-26T00:44:03;99913.38;;;3.23;83.72
16777;BME280;8505;49.456;8.164;2023-04-26T00:46:31;99913.97;;;3.15;84.53
16777;BME280;8505;49.456;8.164;2023-04-26T00:48:59;99916.72;;;3.03;84.53
16777;BME280;8505;49.456;8.164;2023-04-26T00:51:27;99925.88;;;3.08;84.67
16777;BME280;8505;49.456;8.164;2023-04-26T00:53:55;99915.75;;;3.04;85.26
16777;BME280;8505;49.456;8.164;2023-04-26T00:56:24;99919.22;;;3.04;84.56
16777;BME280;8505;49.456;8.164;2023-04-26T00:58:52;99913.97;;;3.15;84.33
16777;BME280;8505;49.456;8.164;2023-04-26T01:01:20;99925.88;;;3.08;84.67
16777;BME280;8505;49.456;8.164;2023-04-26T01:03:48;99915.28;;;2.99;84.79
16777;BME280;8505;49.456;8.164;2023-04-26T01:06:16;99925.38;;;3.03;84.72
16777;BME280;8505;49.456;8.164;2023-04-26T01:08:44;99925.66;;;3.00;84.78
16777;BME280;8505;49.456;8.164;2023-04-26T01:11:12;99927.78;;;2.95;85.05
16777;BME280;8505;49.456;8.164;2023-04-26T01:13:42;99922.31;;;2.87;85.20
16777;BME280;8505;49.456;8.164;2023-04-26T01:16:10;99924.09;;;2.87;85.46
16777;BME280;8505;49.456;8.164;2023-04-26T01:18:40;99916.72;;;2.92;84.96
16777;BME280;8505;49.456;8.164;2023-04-26T01:21:08;99921.47;;;2.75;85.91
16777;BME280;8505;49.456;8.164;2023-04-26T01:23:38;99920.84;;;2.72;85.67
16777;BME280;8505;49.456;8.164;2023-04-26T01:26:05;99926.44;;;2.78;85.46
16777;BME280;8505;49.456;8.164;2023-04-26T01:28:33;99919.69;;;2.76;85.51
16777;BME280;8505;49.456;8.164;2023-04-26T01:31:01;99915.28;;;2.76;85.83
16777;BME280;8505;49.456;8.164;2023-04-26T01:33:28;99919.44;;;2.68;85.80
16777;BME280;8505;49.456;8.164;2023-04-26T01:35:56;99920.84;;;2.72;85.64
16777;BME280;8505;49.456;8.164;2023-04-26T01:38:24;99919.44;;;2.68;85.50
16777;BME280;8505;49.456;8.164;2023-04-26T01:40:53;99918.47;;;2.69;85.71
16777;BME280;8505;49.456;8.164;2023-04-26T01:43:21;99918.69;;;2.66;85.37
16777;BME280;8505;49.456;8.164;2023-04-26T01:45:48;99923.25;;;2.64;85.82
16777;BME280;8505;49.456;8.164;2023-04-26T01:48:16;99915.13;;;2.56;85.70
16777;BME280;8505;49.456;8.164;2023-04-26T01:50:44;99922.00;;;2.46;86.17
16777;BME280;8505;49.456;8.164;2023-04-26T01:53:12;99913.69;;;2.40;86.25
16777;BME280;8505;49.456;8.164;2023-04-26T01:55:39;99920.06;;;2.36;86.34
16777;BME280;8505;49.456;8.164;2023-04-26T01:58:08;99919.41;;;2.46;86.13
16777;BME280;8505;49.456;8.164;2023-04-26T02:00:36;99917.72;;;2.44;85.78
16777;BME280;8505;49.456;8.164;2023-04-26T02:03:04;99925.22;;;2.49;85.76
16777;BME280;8505;49.456;8.164;2023-04-26T02:05:32;99925.56;;;2.44;86.07
16777;BME280;8505;49.456;8.164;2023-04-26T02:08:00;99927.44;;;2.31;86.22
16777;BME280;8505;49.456;8.164;2023-04-26T02:10:28;99921.00;;;2.24;86.37
16777;BME280;8505;49.456;8.164;2023-04-26T02:12:56;99918.72;;;2.20;87.01
16777;BME280;8505;49.456;8.164;2023-04-26T02:15:25;99916.84;;;2.22;86.48
16777;BME280;8505;49.456;8.164;2023-04-26T02:17:53;99923.34;;;2.16;86.84
16777;BME280;8505;49.456;8.164;2023-04-26T02:20:21;99919.41;;;2.11;87.11
16777;BME280;8505;49.456;8.164;2023-04-26T02:22:49;99922.97;;;2.10;86.91
16777;BME280;8505;49.456;8.164;2023-04-26T02:25:16;99915.06;;;1.98;87.60
16777;BME280;8505;49.456;8.164;2023-04-26T02:27:44;99908.53;;;1.93;87.56
16777;BME280;8505;49.456;8.164;2023-04-26T02:30:12;99916.25;;;1.94;87.54
16777;BME280;8505;49.456;8.164;2023-04-26T02:32:41;99909.47;;;1.92;87.51
16777;BME280;8505;49.456;8.164;2023-04-26T02:35:09;99913.13;;;1.78;88.06
16777;BME280;8505;49.456;8.164;2023-04-26T02:37:37;99910.66;;;1.88;87.77
16777;BME280;8505;49.456;8.164;2023-04-26T02:40:06;99909.03;;;1.74;87.90
16777;BME280;8505;49.456;8.164;2023-04-26T02:42:36;99909.97;;;1.73;88.34
16777;BME280;8505;49.456;8.164;2023-04-26T02:45:05;99921.13;;;1.51;88.79
16777;BME280;8505;49.456;8.164;2023-04-26T02:47:33;99917.84;;;1.60;88.62
16777;BME280;8505;49.456;8.164;2023-04-26T02:50:04;99913.06;;;1.54;88.59
16777;BME280;8505;49.456;8.164;2023-04-26T02:52:33;99918.53;;;1.51;88.98
16777;BME280;8505;49.456;8.164;2023-04-26T02:55:01;99920.84;;;1.43;88.87
16777;BME280;8505;49.456;8.164;2023-04-26T02:57:29;99922.56;;;1.55;88.36
16777;BME280;8505;49.456;8.164;2023-04-26T02:59:58;99921.63;;;1.56;88.17
16777;BME280;8505;49.456;8.164;2023-04-26T03:02:26;99925.13;;;1.44;88.32
16777;BME280;8505;49.456;8.164;2023-04-26T03:04:54;99929.50;;;1.44;88.44
16777;BME280;8505;49.456;8.164;2023-04-26T03:07:23;99916.13;;;1.48;88.41
16777;BME280;8505;49.456;8.164;2023-04-26T03:09:51;99924.94;;;1.47;88.81
16777;BME280;8505;49.456;8.164;2023-04-26T03:12:19;99920.25;;;1.40;88.47
16777;BME280;8505;49.456;8.164;2023-04-26T03:14:46;99914.59;;;1.46;88.41
16777;BME280;8505;49.456;8.164;2023-04-26T03:17:14;99918.47;;;1.40;88.44
16777;BME280;8505;49.456;8.164;2023-04-26T03:19:42;99924.03;;;1.36;88.46
16777;BME280;8505;49.456;8.164;2023-04-26T03:22:10;99920.56;;;1.35;88.64
16777;BME280;8505;49.456;8.164;2023-04-26T03:24:42;99918.16;;;1.32;88.64
16777;BME280;8505;49.456;8.164;2023-04-26T03:27:12;99917.13;;;1.35;88.76
16777;BME280;8505;49.456;8.164;2023-04-26T03:29:40;99923.69;;;1.40;88.46
16777;BME280;8505;49.456;8.164;2023-04-26T03:32:09;99914.28;;;1.38;88.41
16777;BME280;8505;49.456;8.164;2023-04-26T03:34:37;99916.84;;;1.27;88.87
16777;BME280;8505;49.456;8.164;2023-04-26T03:37:05;99922.34;;;1.35;88.58
16777;BME280;8505;49.456;8.164;2023-04-26T03:39:33;99924.19;;;1.45;88.19
16777;BME280;8505;49.456;8.164;2023-04-26T03:42:02;99928.28;;;1.37;88.22
16777;BME280;8505;49.456;8.164;2023-04-26T03:44:29;99923.59;;;1.42;88.17
16777;BME280;8505;49.456;8.164;2023-04-26T03:46:57;99928.84;;;1.29;88.28
16777;BME280;8505;49.456;8.164;2023-04-26T03:49:25;99920.19;;;1.29;88.82
16777;BME280;8505;49.456;8.164;2023-04-26T03:51:53;99918.31;;;1.18;88.73
16777;BME280;8505;49.456;8.164;2023-04-26T03:54:20;99917.59;;;1.16;89.14
16777;BME280;8505;49.456;8.164;2023-04-26T03:56:48;99911.03;;;1.10;89.17
16777;BME280;8505;49.456;8.164;2023-04-26T03:59:17;99909.78;;;1.16;89.05
16777;BME280;8505;49.456;8.164;2023-04-26T04:01:45;99904.97;;;1.10;88.76
16777;BME280;8505;49.456;8.164;2023-04-26T04:04:12;99904.34;;;1.06;89.36
16777;BME280;8505;49.456;8.164;2023-04-26T04:06:40;99901.44;;;1.11;89.10
16777;BME280;8505;49.456;8.164;2023-04-26T04:09:08;99903.75;;;1.03;89.09
16777;BME280;8505;49.456;8.164;2023-04-26T04:11:36;99907.88;;;1.05;88.93
16777;BME280;8505;49.456;8.164;2023-04-26T04:14:03;99918.75;;;0.87;90.07
16777;BME280;8505;49.456;8.164;2023-04-26T04:16:34;99915.44;;;0.85;90.09
16777;BME280;8505;49.456;8.164;2023-04-26T04:19:01;99914.38;;;0.87;89.69
16777;BME280;8505;49.456;8.164;2023-04-26T04:21:29;99920.00;;;0.94;89.74
16777;BME280;8505;49.456;8.164;2023-04-26T04:23:57;99919.31;;;0.92;89.77
16777;BME280;8505;49.456;8.164;2023-04-26T04:26:25;99926.72;;;0.85;89.52
16777;BME280;8505;49.456;8.164;2023-04-26T04:28:53;99928.47;;;0.85;89.79
16777;BME280;8505;49.456;8.164;2023-04-26T04:31:21;99929.19;;;0.87;89.58
16777;BME280;8505;49.456;8.164;2023-04-26T04:33:51;99930.66;;;0.91;89.54
16777;BME280;8505;49.456;8.164;2023-04-26T04:36:19;99934.81;;;0.93;89.36
16777;BME280;8505;49.456;8.164;2023-04-26T04:38:47;99940.66;;;0.97;89.42
16777;BME280;8505;49.456;8.164;2023-04-26T04:41:14;99937.22;;;0.96;89.46
16777;BME280;8505;49.456;8.164;2023-04-26T04:43:42;99943.47;;;0.94;89.25
16777;BME280;8505;49.456;8.164;2023-04-26T04:46:10;99942.63;;;1.06;88.59
16777;BME280;8505;49.456;8.164;2023-04-26T04:48:38;99941.50;;;0.85;89.54
16777;BME280;8505;49.456;8.164;2023-04-26T04:51:08;99952.88;;;0.96;89.48
16777;BME280;8505;49.456;8.164;2023-04-26T04:53:35;99948.91;;;1.03;89.14
16777;BME280;8505;49.456;8.164;2023-04-26T04:56:04;99948.38;;;1.11;88.83
16777;BME280;8505;49.456;8.164;2023-04-26T04:58:31;99947.28;;;1.26;88.31
16777;BME280;8505;49.456;8.164;2023-04-26T05:00:59;99947.28;;;1.26;87.85
16777;BME280;8505;49.456;8.164;2023-04-26T05:03:28;99954.69;;;1.32;87.79
16777;BME280;8505;49.456;8.164;2023-04-26T05:05:56;99954.34;;;1.37;87.62
16777;BME280;8505;49.456;8.164;2023-04-26T05:08:25;99963.31;;;1.45;87.22
16777;BME280;8505;49.456;8.164;2023-04-26T05:10:53;99960.16;;;1.66;86.66
16777;BME280;8505;49.456;8.164;2023-04-26T05:13:22;99957.53;;;1.89;85.53
16777;BME280;8505;49.456;8.164;2023-04-26T05:15:49;99954.69;;;1.92;85.16
16777;BME280;8505;49.456;8.164;2023-04-26T05:18:17;99962.72;;;2.02;85.19
16777;BME280;8505;49.456;8.164;2023-04-26T05:20:45;99963.97;;;2.20;84.12
16777;BME280;8505;49.456;8.164;2023-04-26T05:23:12;99960.56;;;2.31;83.59
16777;BME280;8505;49.456;8.164;2023-04-26T05:25:41;99964.25;;;2.28;83.14
16777;BME280;8505;49.456;8.164;2023-04-26T05:28:09;99973.09;;;2.50;82.93
16777;BME280;8505;49.456;8.164;2023-04-26T05:30:38;99972.63;;;2.56;82.85
16777;BME280;8505;49.456;8.164;2023-04-26T05:33:06;99974.97;;;2.48;82.60
16777;BME280;8505;49.456;8.164;2023-04-26T05:35:33;99970.53;;;2.72;81.20
16777;BME280;8505;49.456;8.164;2023-04-26T05:38:01;99974.03;;;2.95;81.36
16777;BME280;8505;49.456;8.164;2023-04-26T05:40:30;99972.00;;;2.98;80.47
16777;BME280;8505;49.456;8.164;2023-04-26T05:42:59;99975.81;;;3.16;80.24
16777;BME280;8505;49.456;8.164;2023-04-26T05:45:27;99975.34;;;3.22;79.57
16777;BME280;8505;49.456;8.164;2023-04-26T05:47:55;99979.72;;;3.55;79.10
16777;BME280;8505;49.456;8.164;2023-04-26T05:50:22;99975.69;;;3.40;78.63
16777;BME280;8505;49.456;8.164;2023-04-26T05:52:50;99983.78;;;3.48;78.55
16777;BME280;8505;49.456;8.164;2023-04-26T05:55:19;99989.34;;;3.66;78.15
16777;BME280;8505;49.456;8.164;2023-04-26T05:57:46;99986.94;;;3.85;77.81
16777;BME280;8505;49.456;8.164;2023-04-26T06:00:16;99990.00;;;3.90;77.48
16777;BME280;8505;49.456;8.164;2023-04-26T06:02:46;99998.97;;;4.20;76.11
16777;BME280;8505;49.456;8.164;2023-04-26T06:05:14;99994.34;;;4.23;76.33
16777;BME280;8505;49.456;8.164;2023-04-26T06:07:42;99996.44;;;4.61;74.84
16777;BME280;8505;49.456;8.164;2023-04-26T06:10:11;99998.97;;;4.52;74.84
16777;BME280;8505;49.456;8.164;2023-04-26T06:12:39;99996.56;;;4.80;74.54
16777;BME280;8505;49.456;8.164;2023-04-26T06:15:08;99996.41;;;5.03;73.65
16777;BME280;8505;49.456;8.164;2023-04-26T06:17:37;99994.75;;;5.62;70.89
16777;BME280;8505;49.456;8.164;2023-04-26T06:20:06;100002.78;;;5.61;71.93
16777;BME280;8505;49.456;8.164;2023-04-26T06:22:35;99997.16;;;5.45;71.60
16777;BME280;8505;49.456;8.164;2023-04-26T06:25:04;99991.91;;;5.85;71.00
16777;BME280;8505;49.456;8.164;2023-04-26T06:27:32;99986.59;;;6.15;68.86
16777;BME280;8505;49.456;8.164;2023-04-26T06:30:02;99984.09;;;6.42;68.56
16777;BME280;8505;49.456;8.164;2023-04-26T06:32:30;99981.34;;;7.10;66.93
16777;BME280;8505;49.456;8.164;2023-04-26T06:34:59;99984.59;;;7.68;64.77
16777;BME280;8505;49.456;8.164;2023-04-26T06:37:27;99986.03;;;8.07;62.75
16777;BME280;8505;49.456;8.164;2023-04-26T06:39:54;99979.72;;;8.18;62.26
16777;BME280;8505;49.456;8.164;2023-04-26T06:42:22;99983.81;;;8.03;61.51
16777;BME280;8505;49.456;8.164;2023-04-26T06:44:50;99972.75;;;8.70;60.69
16777;BME280;8505;49.456;8.164;2023-04-26T06:47:17;99977.41;;;8.50;58.35
16777;BME280;8505;49.456;8.164;2023-04-26T06:49:45;99973.53;;;9.74;55.76
16777;BME280;8505;49.456;8.164;2023-04-26T06:52:14;99972.84;;;10.63;52.49
16777;BME280;8505;49.456;8.164;2023-04-26T06:54:42;99976.16;;;10.97;51.52
16777;BME280;8505;49.456;8.164;2023-04-26T06:57:22;99981.78;;;11.02;51.84
16777;BME280;8505;49.456;8.164;2023-04-26T06:59:50;99973.63;;;11.20;50.74
16777;BME280;8505;49.456;8.164;2023-04-26T07:02:17;99975.25;;;11.84;50.37
16777;BME280;8505;49.456;8.164;2023-04-26T07:04:45;99966.59;;;11.90;49.06
16777;BME280;8505;49.456;8.164;2023-04-26T07:07:14;99965.78;;;11.82;48.03
16777;BME280;8505;49.456;8.164;2023-04-26T07:09:42;99967.72;;;12.19;47.61
16777;BME280;8505;49.456;8.164;2023-04-26T07:12:10;99976.38;;;11.90;47.86
16777;BME280;8505;49.456;8.164;2023-04-26T07:14:38;99971.16;;;12.50;45.73
16777;BME280;8505;49.456;8.164;2023-04-26T07:17:06;99962.94;;;12.37;46.57
16777;BME280;8505;49.456;8.164;2023-04-26T07:19:35;99975.78;;;11.08;48.92
16777;BME280;8505;49.456;8.164;2023-04-26T07:22:02;99976.16;;;10.57;51.20
16777;BME280;8505;49.456;8.164;2023-04-26T07:24:32;99977.03;;;11.36;49.94
16777;BME280;8505;49.456;8.164;2023-04-26T07:27:00;99971.34;;;12.26;48.21
16777;BME280;8505;49.456;8.164;2023-04-26T07:29:28;99964.53;;;12.69;46.99
16777;BME280;8505;49.456;8.164;2023-04-26T07:31:56;99968.72;;;12.63;46.57
16777;BME280;8505;49.456;8.164;2023-04-26T07:34:24;99973.31;;;11.62;49.42
16777;BME280;8505;49.456;8.164;2023-04-26T07:36:52;99971.53;;;11.93;48.00
16777;BME280;8505;49.456;8.164;2023-04-26T07:39:20;99962.88;;;11.99;47.51
16777;BME280;8505;49.456;8.164;2023-04-26T07:41:49;99971.09;;;12.12;47.52
16777;BME280;8505;49.456;8.164;2023-04-26T07:44:16;99969.63;;;12.55;46.77
16777;BME280;8505;49.456;8.164;2023-04-26T07:46:44;99963.75;;;13.20;46.41
16777;BME280;8505;49.456;8.164;2023-04-26T07:49:12;99966.63;;;13.11;44.54
16777;BME280;8505;49.456;8.164;2023-04-26T07:51:42;99968.56;;;12.79;44.70
16777;BME280;8505;49.456;8.164;2023-04-26T07:54:11;99969.28;;;12.96;44.18
16777;BME280;8505;49.456;8.164;2023-04-26T07:56:38;99970.06;;;12.96;44.87
16777;BME280;8505;49.456;8.164;2023-04-26T07:59:07;99965.53;;;13.78;43.53
16777;BME280;8505;49.456;8.164;2023-04-26T08:01:35;99964.59;;;13.86;43.25
16777;BME280;8505;49.456;8.164;2023-04-26T08:04:03;99968.88;;;13.51;43.13
16777;BME280;8505;49.456;8.164;2023-04-26T08:06:32;99964.16;;;13.68;42.80
16777;BME280;8505;49.456;8.164;2023-04-26T08:08:59;99969.34;;;13.25;43.55
16777;BME280;8505;49.456;8.164;2023-04-26T08:11:27;99978.81;;;13.93;43.11
16777;BME280;8505;49.456;8.164;2023-04-26T08:13:55;99971.03;;;13.77;42.32
16777;BME280;8505;49.456;8.164;2023-04-26T08:16:24;99962.53;;;14.39;40.57
16777;BME280;8505;49.456;8.164;2023-04-26T08:18:52;99975.56;;;13.62;43.96
16777;BME280;8505;49.456;8.164;2023-04-26T08:21:20;99961.16;;;14.28;41.93
16777;BME280;8505;49.456;8.164;2023-04-26T08:23:47;99963.31;;;15.10;39.97
16777;BME280;8505;49.456;8.164;2023-04-26T08:26:15;99965.84;;;15.18;39.19
16777;BME280;8505;49.456;8.164;2023-04-26T08:28:43;99964.47;;;14.30;40.69
16777;BME280;8505;49.456;8.164;2023-04-26T08:31:10;99963.63;;;14.30;40.62
16777;BME280;8505;49.456;8.164;2023-04-26T08:33:41;99960.13;;;14.44;40.38
16777;BME280;8505;49.456;8.164;2023-04-26T08:36:09;99956.94;;;15.04;39.16
16777;BME280;8505;49.456;8.164;2023-04-26T08:38:36;99955.00;;;15.26;39.11
16777;BME280;8505;49.456;8.164;2023-04-26T08:41:04;99956.53;;;15.42;38.02
16777;BME280;8505;49.456;8.164;2023-04-26T08:43:35;99952.94;;;14.66;38.25
16777;BME280;8505;49.456;8.164;2023-04-26T08:46:06;99949.75;;;15.39;36.84
16777;BME280;8505;49.456;8.164;2023-04-26T08:48:37;99944.97;;;15.00;37.63
16777;BME280;8505;49.456;8.164;2023-04-26T08:51:09;99948.84;;;15.25;38.46
16777;BME280;8505;49.456;8.164;2023-04-26T08:53:39;99953.91;;;13.50;41.94
16777;BME280;8505;49.456;8.164;2023-04-26T08:56:09;99943.75;;;14.47;41.59
16777;BME280;8505;49.456;8.164;2023-04-26T08:58:38;99945.22;;;14.77;39.90
16777;BME280;8505;49.456;8.164;2023-04-26T09:01:07;99936.91;;;14.02;41.54
16777;BME280;8505;49.456;8.164;2023-04-26T09:03:35;99945.66;;;13.30;43.11
16777;BME280;8505;49.456;8.164;2023-04-26T09:06:06;99940.13;;;13.47;43.09
16777;BME280;8505;49.456;8.164;2023-04-26T09:08:35;99938.88;;;13.93;42.78
16777;BME280;8505;49.456;8.164;2023-04-26T09:11:05;99927.78;;;14.11;42.00
16777;BME280;8505;49.456;8.164;2023-04-26T09:13:32;99940.25;;;13.89;41.99
16777;BME280;8505;49.456;8.164;2023-04-26T09:16:00;99936.94;;;13.51;44.33
16777;BME280;8505;49.456;8.164;2023-04-26T09:18:30;99940.72;;;12.75;45.38
16777;BME280;8505;49.456;8.164;2023-04-26T09:21:04;99942.50;;;12.97;45.02
16777;BME280;8505;49.456;8.164;2023-04-26T09:23:34;99944.91;;;13.22;44.54
16777;BME280;8505;49.456;8.164;2023-04-26T09:26:14;99954.09;;;13.49;43.80
16777;BME280;8505;49.456;8.164;2023-04-26T09:28:42;99954.09;;;13.63;45.53
16777;BME280;8505;49.456;8.164;2023-04-26T09:31:13;99951.91;;;13.38;43.05
16777;BME280;8505;49.456;8.164;2023-04-26T09:33:59;99949.28;;;13.00;43.66
16777;BME280;8505;49.456;8.164;2023-04-26T09:36:27;99948.38;;;13.08;44.38
16777;BME280;8505;49.456;8.164;2023-04-26T09:38:56;99944.25;;;12.30;45.08
16777;BME280;8505;49.456;8.164;2023-04-26T09:41:40;99940.84;;;12.96;45.10
16777;BME280;8505;49.456;8.164;2023-04-26T09:44:19;99939.06;;;12.74;44.65
16777;BME280;8505;49.456;8.164;2023-04-26T09:47:01;99939.47;;;13.01;44.39
16777;BME280;8505;49.456;8.164;2023-04-26T09:49:31;99940.50;;;12.62;43.98
16777;BME280;8505;49.456;8.164;2023-04-26T09:52:00;99926.19;;;13.59;43.19
16777;BME280;8505;49.456;8.164;2023-04-26T09:54:41;99923.81;;;13.50;43.30
16777;BME280;8505;49.456;8.164;2023-04-26T09:57:09;99924.06;;;13.11;44.01
16777;BME280;8505;49.456;8.164;2023-04-26T09:59:44;99926.50;;;13.86;42.43
16777;BME280;8505;49.456;8.164;2023-04-26T10:02:18;99932.16;;;13.61;43.51
16777;BME280;8505;49.456;8.164;2023-04-26T10:04:48;99928.53;;;12.43;45.44
16777;BME280;8505;49.456;8.164;2023-04-26T10:07:18;99919.22;;;13.00;44.53
16777;BME280;8505;49.456;8.164;2023-04-26T10:09:48;99924.34;;;13.01;43.67
16777;BME280;8505;49.456;8.164;2023-04-26T10:12:18;99928.91;;;13.66;42.24
16777;BME280;8505;49.456;8.164;2023-04-26T10:14:47;99928.47;;;14.55;41.21
16777;BME280;8505;49.456;8.164;2023-04-26T10:17:15;99938.50;;;13.31;42.65
16777;BME280;8505;49.456;8.164;2023-04-26T10:19:47;99931.97;;;13.99;42.73
16777;BME280;8505;49.456;8.164;2023-04-26T10:22:20;99921.81;;;14.09;42.19
16777;BME280;8505;49.456;8.164;2023-04-26T10:24:51;99926.75;;;13.91;41.32
16777;BME280;8505;49.456;8.164;2023-04-26T10:27:47;99927.47;;;14.21;41.51
16777;BME280;8505;49.456;8.164;2023-04-26T10:30:16;99925.59;;;14.36;41.01
16777;BME280;8505;49.456;8.164;2023-04-26T10:33:12;99927.97;;;14.73;39.50
16777;BME280;8505;49.456;8.164;2023-04-26T10:36:08;99915.25;;;15.03;39.36
16777;BME280;8505;49.456;8.164;2023-04-26T10:38:38;99904.50;;;15.59;38.08
16777;BME280;8505;49.456;8.164;2023-04-26T10:41:30;99890.25;;;16.06;36.80
16777;BME280;8505;49.456;8.164;2023-04-26T10:43:59;99894.53;;;16.00;36.93
16777;BME280;8505;49.456;8.164;2023-04-26T10:46:49;99888.19;;;15.47;37.93
16777;BME280;8505;49.456;8.164;2023-04-26T10:49:19;99891.94;;;14.84;39.23
16777;BME280;8505;49.456;8.164;2023-04-26T10:52:08;99884.41;;;15.28;38.73
16777;BME280;8505;49.456;8.164;2023-04-26T10:54:53;99881.56;;;15.84;37.36
16777;BME280;8505;49.456;8.164;2023-04-26T10:57:24;99881.69;;;14.81;37.78
16777;BME280;8505;49.456;8.164;2023-04-26T11:00:24;99873.44;;;15.10;37.99
16777;BME280;8505;49.456;8.164;2023-04-26T11:03:06;99878.53;;;14.98;38.40
16777;BME280;8505;49.456;8.164;2023-04-26T11:05:47;99875.88;;;14.43;40.36
16777;BME280;8505;49.456;8.164;2023-04-26T11:08:18;99863.31;;;14.65;39.38
16777;BME280;8505;49.456;8.164;2023-04-26T11:10:58;99864.50;;;14.90;38.75
16777;BME280;8505;49.456;8.164;2023-04-26T11:13:29;99855.09;;;14.94;38.34
16777;BME280;8505;49.456;8.164;2023-04-26T11:15:59;99856.50;;;14.55;39.45
16777;BME280;8505;49.456;8.164;2023-04-26T11:18:29;99864.44;;;14.28;39.44
16777;BME280;8505;49.456;8.164;2023-04-26T11:20:57;99859.50;;;14.74;39.77
16777;BME280;8505;49.456;8.164;2023-04-26T11:23:27;99855.31;;;14.65;38.72
16777;BME280;8505;49.456;8.164;2023-04-26T11:25:56;99853.97;;;14.47;38.84
16777;BME280;8505;49.456;8.164;2023-04-26T11:28:24;99851.16;;;14.55;39.56
16777;BME280;8505;49.456;8.164;2023-04-26T11:30:53;99845.56;;;14.50;39.30
16777;BME280;8505;49.456;8.164;2023-04-26T11:33:22;99843.19;;;14.90;39.84
16777;BME280;8505;49.456;8.164;2023-04-26T11:35:50;99844.19;;;14.89;38.23
16777;BME280;8505;49.456;8.164;2023-04-26T11:38:20;99842.78;;;14.58;39.72
16777;BME280;8505;49.456;8.164;2023-04-26T11:40:52;99835.78;;;14.85;38.62
16777;BME280;8505;49.456;8.164;2023-04-26T11:43:21;99836.28;;;13.97;39.79
16777;BME280;8505;49.456;8.164;2023-04-26T11:45:49;99837.84;;;14.06;41.28
16777;BME280;8505;49.456;8.164;2023-04-26T11:48:18;99827.53;;;14.80;38.54
16777;BME280;8505;49.456;8.164;2023-04-26T11:50:46;99833.34;;;14.35;39.73
16777;BME280;8505;49.456;8.164;2023-04-26T11:53:14;99843.47;;;14.18;39.29
16777;BME280;8505;49.456;8.164;2023-04-26T11:55:41;99827.78;;;14.30;38.71
16777;BME280;8505;49.456;8.164;2023-04-26T11:58:11;99827.59;;;14.59;38.43
16777;BME280;8505;49.456;8.164;2023-04-26T12:00:55;99831.44;;;14.29;39.82
16777;BME280;8505;49.456;8.164;2023-04-26T12:03:29;99821.03;;;14.55;39.67
16777;BME280;8505;49.456;8.164;2023-04-26T12:05:57;99823.88;;;14.32;39.84
16777;BME280;8505;49.456;8.164;2023-04-26T12:08:26;99828.38;;;14.81;38.39
16777;BME280;8505;49.456;8.164;2023-04-26T12:10:58;99831.34;;;14.15;39.73
16777;BME280;8505;49.456;8.164;2023-04-26T12:13:28;99827.91;;;14.77;39.97
16777;BME280;8505;49.456;8.164;2023-04-26T12:15:55;99822.22;;;14.80;38.82
16777;BME280;8505;49.456;8.164;2023-04-26T12:18:30;99830.50;;;14.15;39.06
16777;BME280;8505;49.456;8.164;2023-04-26T12:20:59;99828.53;;;15.14;38.94
16777;BME280;8505;49.456;8.164;2023-04-26T12:23:35;99816.00;;;15.68;37.59
16777;BME280;8505;49.456;8.164;2023-04-26T12:26:05;99824.16;;;15.47;38.20
16777;BME280;8505;49.456;8.164;2023-04-26T12:28:32;99818.38;;;15.44;38.12
16777;BME280;8505;49.456;8.164;2023-04-26T12:31:00;99826.31;;;14.27;39.16
16777;BME280;8505;49.456;8.164;2023-04-26T12:33:31;99822.09;;;14.61;38.68
16777;BME280;8505;49.456;8.164;2023-04-26T12:36:05;99810.91;;;15.93;36.93
16777;BME280;8505;49.456;8.164;2023-04-26T12:38:33;99810.22;;;15.58;37.28
16777;BME280;8505;49.456;8.164;2023-04-26T12:41:01;99820.59;;;14.86;39.17
16777;BME280;8505;49.456;8.164;2023-04-26T12:43:28;99814.28;;;15.41;37.65
16777;BME280;8505;49.456;8.164;2023-04-26T12:45:56;99816.75;;;15.49;37.84
16777;BME280;8505;49.456;8.164;2023-04-26T12:48:24;99816.94;;;14.59;38.77
16777;BME280;8505;49.456;8.164;2023-04-26T12:50:53;99815.75;;;14.62;40.15
16777;BME280;8505;49.456;8.164;2023-04-26T12:53:21;99812.91;;;14.70;38.94
16777;BME280;8505;49.456;8.164;2023-04-26T12:55:48;99806.75;;;15.64;37.77
16777;BME280;8505;49.456;8.164;2023-04-26T12:58:16;99807.75;;;15.57;36.68
16777;BME280;8505;49.456;8.164;2023-04-26T13:00:44;99818.50;;;15.83;37.70
16777;BME280;8505;49.456;8.164;2023-04-26T13:03:11;99804.97;;;15.98;36.49
16777;BME280;8505;49.456;8.164;2023-04-26T13:05:40;99815.66;;;14.83;38.39
16777;BME280;8505;49.456;8.164;2023-04-26T13:08:09;99806.75;;;15.64;37.76
16777;BME280;8505;49.456;8.164;2023-04-26T13:10:38;99805.97;;;15.90;36.32
16777;BME280;8505;49.456;8.164;2023-04-26T13:13:05;99807.19;;;15.81;37.47
16777;BME280;8505;49.456;8.164;2023-04-26T13:15:33;99802.31;;;16.04;36.17
16777;BME280;8505;49.456;8.164;2023-04-26T13:18:01;99814.00;;;16.03;36.34
16777;BME280;8505;49.456;8.164;2023-04-26T13:20:29;99807.63;;;16.24;35.20
16777;BME280;8505;49.456;8.164;2023-04-26T13:22:57;99807.41;;;16.65;34.56
16777;BME280;8505;49.456;8.164;2023-04-26T13:25:26;99796.34;;;16.29;35.06
16777;BME280;8505;49.456;8.164;2023-04-26T13:27:53;99807.97;;;15.08;37.42
16777;BME280;8505;49.456;8.164;2023-04-26T13:30:21;99806.81;;;16.10;35.46